createdAt,value
2022-08-27T00:00:46.904Z,52.68
2022-08-27T00:03:14.938Z,52.74
2022-08-27T00:05:42.754Z,52.43
2022-08-27T00:08:12.688Z,52.86
2022-08-27T00:10:41.613Z,52.44
2022-08-27T00:13:09.001Z,52.49
2022-08-27T00:15:36.862Z,52.83
2022-08-27T00:18:05.549Z,52.76
2022-08-27T00:20:33.622Z,52.77
2022-08-27T00:23:01.447Z,52.36
2022-08-27T00:25:28.827Z,52.50
2022-08-27T00:27:56.089Z,52.50
2022-08-27T00:30:23.983Z,52.55
2022-08-27T00:32:51.363Z,52.52
2022-08-27T00:35:18.886Z,52.81
2022-08-27T00:37:46.268Z,52.38
2022-08-27T00:40:17.422Z,52.39
2022-08-27T00:42:46.059Z,52.39
2022-08-27T00:45:16.953Z,52.35
2022-08-27T00:47:49.329Z,52.76
2022-08-27T00:50:23.385Z,52.46
2022-08-27T00:52:57.482Z,52.69
2022-08-27T00:55:28.753Z,52.38
2022-08-27T00:58:14.559Z,52.36
2022-08-27T01:00:42.548Z,52.78
2022-08-27T01:03:09.907Z,52.68
2022-08-27T01:05:38.517Z,52.61
2022-08-27T01:08:14.250Z,52.49
2022-08-27T01:10:42.358Z,52.48
2022-08-27T01:13:11.710Z,52.75
2022-08-27T01:15:41.177Z,52.68
2022-08-27T01:18:09.920Z,52.67
2022-08-27T01:20:54.390Z,52.55
2022-08-27T01:23:36.806Z,52.41
2022-08-27T01:26:06.765Z,52.27
2022-08-27T01:28:37.555Z,52.47
2022-08-27T01:31:08.256Z,52.48
2022-08-27T01:33:35.647Z,52.36
2022-08-27T01:36:03.920Z,52.55
2022-08-27T01:38:31.778Z,52.31
2022-08-27T01:41:00.838Z,52.68
2022-08-27T01:43:30.108Z,52.33
2022-08-27T01:45:57.415Z,52.44
2022-08-27T01:48:24.812Z,52.47
2022-08-27T01:50:52.095Z,52.49
2022-08-27T01:53:23.248Z,52.44
2022-08-27T01:55:52.516Z,52.74
2022-08-27T01:58:25.165Z,52.72
2022-08-27T02:00:56.415Z,52.68
2022-08-27T02:03:25.007Z,52.57
2022-08-27T02:05:52.803Z,52.32
2022-08-27T02:08:20.856Z,52.32
2022-08-27T02:10:49.076Z,52.65
2022-08-27T02:13:17.446Z,52.38
2022-08-27T02:15:45.699Z,52.42
2022-08-27T02:18:14.920Z,52.47
2022-08-27T02:20:43.881Z,52.53
2022-08-27T02:23:11.739Z,52.60
2022-08-27T02:25:39.334Z,52.75
2022-08-27T02:28:08.363Z,52.51
2022-08-27T02:30:36.589Z,52.77
2022-08-27T02:33:05.834Z,52.51
2022-08-27T02:35:38.778Z,52.50
2022-08-27T02:38:08.172Z,52.65
2022-08-27T02:40:37.352Z,52.58
2022-08-27T02:43:05.631Z,52.45
2022-08-27T02:45:32.897Z,52.55
2022-08-27T02:48:03.345Z,52.79
2022-08-27T02:50:30.696Z,52.48
2022-08-27T02:52:57.969Z,52.36
2022-08-27T02:55:25.229Z,52.77
2022-08-27T02:57:52.558Z,52.40
2022-08-27T03:00:23.319Z,52.73
2022-08-27T03:02:50.727Z,52.39
2022-08-27T03:05:19.002Z,52.47
2022-08-27T03:07:46.289Z,52.60
2022-08-27T03:10:15.602Z,52.52
2022-08-27T03:12:44.224Z,52.78
2022-08-27T03:15:16.687Z,52.74
2022-08-27T03:18:02.500Z,52.59
2022-08-27T03:20:29.881Z,52.86
2022-08-27T03:22:57.380Z,52.87
2022-08-27T03:25:24.957Z,52.59
2022-08-27T03:27:52.311Z,52.68
2022-08-27T03:30:22.023Z,52.89
2022-08-27T03:32:49.440Z,52.91
2022-08-27T03:35:17.424Z,52.56
2022-08-27T03:37:44.667Z,52.79
2022-08-27T03:40:13.503Z,52.98
2022-08-27T03:42:42.822Z,52.93
2022-08-27T03:45:11.227Z,53.04
2022-08-27T03:47:38.804Z,52.95
2022-08-27T03:50:07.211Z,52.60
2022-08-27T03:52:36.264Z,52.92
2022-08-27T03:55:06.492Z,52.88
2022-08-27T03:57:33.842Z,52.80
2022-08-27T04:00:01.330Z,52.58
2022-08-27T04:02:28.863Z,52.99
2022-08-27T04:04:57.774Z,52.62
2022-08-27T04:07:25.120Z,52.78
2022-08-27T04:09:52.453Z,52.90
2022-08-27T04:12:19.808Z,52.77
2022-08-27T04:14:47.309Z,53.01
2022-08-27T04:17:14.655Z,52.75
2022-08-27T04:19:41.920Z,52.75
2022-08-27T04:22:09.198Z,52.93
2022-08-27T04:24:38.032Z,52.55
2022-08-27T04:27:06.441Z,52.56
2022-08-27T04:29:34.476Z,52.58
2022-08-27T04:32:02.133Z,52.73
2022-08-27T04:34:30.861Z,52.81
2022-08-27T04:36:58.129Z,53.07
2022-08-27T04:39:30.402Z,52.78
2022-08-27T04:41:59.559Z,53.05
2022-08-27T04:44:30.392Z,52.87
2022-08-27T04:47:00.830Z,52.71
2022-08-27T04:49:29.859Z,52.86
2022-08-27T04:51:59.360Z,52.43
2022-08-27T04:54:32.226Z,52.52
2022-08-27T04:57:02.776Z,52.42
2022-08-27T04:59:31.794Z,52.47
2022-08-27T05:01:59.910Z,52.80
2022-08-27T05:04:30.782Z,52.68
2022-08-27T05:06:58.160Z,52.92
2022-08-27T05:09:26.905Z,52.75
2022-08-27T05:11:55.536Z,52.87
2022-08-27T05:14:24.331Z,52.55
2022-08-27T05:16:51.765Z,52.59
2022-08-27T05:19:19.013Z,52.80
2022-08-27T05:21:49.446Z,52.50
2022-08-27T05:24:19.173Z,52.30
2022-08-27T05:26:46.619Z,52.52
2022-08-27T05:29:14.728Z,52.29
2022-08-27T05:31:43.167Z,52.18
2022-08-27T05:34:18.867Z,51.96
2022-08-27T05:36:49.614Z,52.30
2022-08-27T05:39:17.551Z,52.04
2022-08-27T05:41:44.902Z,52.17
2022-08-27T05:44:40.228Z,52.08
2022-08-27T05:46:59.589Z,52.52
2022-08-27T05:49:26.841Z,52.45
2022-08-27T05:51:54.179Z,52.20
2022-08-27T05:54:21.492Z,52.40
2022-08-27T05:56:50.066Z,52.64
2022-08-27T05:59:36.742Z,52.59
2022-08-27T06:02:06.252Z,52.30
2022-08-27T06:04:33.841Z,52.49
2022-08-27T06:07:01.131Z,52.39
2022-08-27T06:09:29.439Z,52.43
2022-08-27T06:11:59.734Z,52.45
2022-08-27T06:14:28.305Z,52.56
2022-08-27T06:16:56.410Z,52.88
2022-08-27T06:19:24.135Z,52.96
2022-08-27T06:22:01.057Z,53.03
2022-08-27T06:24:39.792Z,52.80
2022-08-27T06:27:09.828Z,53.06
2022-08-27T06:29:37.342Z,53.36
2022-08-27T06:32:05.593Z,53.29
2022-08-27T06:34:33.890Z,53.32
2022-08-27T06:37:01.687Z,53.71
2022-08-27T06:39:29.178Z,53.61
2022-08-27T06:41:58.840Z,53.70
2022-08-27T06:44:27.024Z,53.48
2022-08-27T06:46:54.541Z,53.38
2022-08-27T06:49:21.870Z,52.94
2022-08-27T06:51:49.332Z,52.41
2022-08-27T06:54:18.603Z,52.98
2022-08-27T06:56:45.899Z,52.68
2022-08-27T06:59:15.932Z,52.70
2022-08-27T07:01:46.823Z,52.28
2022-08-27T07:04:19.519Z,52.55
2022-08-27T07:06:46.926Z,52.31
2022-08-27T07:09:14.288Z,52.27
2022-08-27T07:11:41.592Z,52.16
2022-08-27T07:14:09.718Z,52.19
2022-08-27T07:16:37.728Z,52.19
2022-08-27T07:19:08.350Z,52.15
2022-08-27T07:21:36.260Z,52.19
2022-08-27T07:24:05.587Z,52.39
2022-08-27T07:26:37.054Z,52.61
2022-08-27T07:29:09.905Z,52.37
2022-08-27T07:31:38.861Z,52.70
2022-08-27T07:34:06.712Z,52.72
2022-08-27T07:36:35.110Z,52.77
2022-08-27T07:39:02.364Z,53.19
2022-08-27T07:41:31.834Z,53.06
2022-08-27T07:44:18.931Z,52.74
2022-08-27T07:46:48.585Z,52.58
2022-08-27T07:49:18.101Z,52.76
2022-08-27T07:51:45.964Z,53.14
2022-08-27T07:54:13.507Z,53.07
2022-08-27T07:56:41.656Z,52.58
2022-08-27T07:59:11.497Z,52.98
2022-08-27T08:01:38.863Z,52.98
2022-08-27T08:04:06.245Z,53.15
2022-08-27T08:06:42.206Z,52.70
2022-08-27T08:09:11.417Z,52.84
2022-08-27T08:11:42.385Z,52.86
2022-08-27T08:14:09.738Z,52.45
2022-08-27T08:16:37.117Z,52.89
2022-08-27T08:19:04.441Z,52.70
2022-08-27T08:21:31.967Z,52.94
2022-08-27T08:24:00.075Z,53.01
2022-08-27T08:26:27.669Z,52.92
2022-08-27T08:28:55.615Z,53.12
2022-08-27T08:31:24.358Z,53.02
2022-08-27T08:33:52.281Z,53.41
2022-08-27T08:36:22.164Z,53.18
2022-08-27T08:38:50.906Z,53.38
2022-08-27T08:41:43.454Z,53.38
2022-08-27T08:44:25.998Z,53.46
2022-08-27T08:46:59.767Z,52.97
2022-08-27T08:49:49.607Z,52.93
2022-08-27T08:52:35.561Z,53.36
2022-08-27T08:55:15.029Z,53.03
2022-08-27T08:58:01.168Z,53.29
2022-08-27T09:00:28.461Z,53.06
2022-08-27T09:02:55.934Z,53.10
2022-08-27T09:05:27.367Z,52.99
2022-08-27T09:08:34.119Z,53.05
2022-08-27T09:11:08.261Z,53.62
2022-08-27T09:13:42.041Z,53.63
2022-08-27T09:16:09.781Z,54.02
2022-08-27T09:18:40.887Z,53.98
2022-08-27T09:21:28.075Z,53.90
2022-08-27T09:24:01.868Z,54.16
2022-08-27T09:26:32.349Z,54.29
2022-08-27T09:29:17.480Z,54.66
2022-08-27T09:31:53.994Z,54.55
2022-08-27T09:34:21.817Z,54.69
2022-08-27T09:36:51.694Z,54.16
2022-08-27T09:39:19.177Z,53.92
2022-08-27T09:41:48.940Z,53.95
2022-08-27T09:44:22.847Z,53.32
2022-08-27T09:46:59.417Z,53.50
2022-08-27T09:49:27.234Z,53.30
2022-08-27T09:51:56.184Z,53.29
2022-08-27T09:54:46.674Z,53.67
2022-08-27T09:57:30.742Z,53.02
2022-08-27T09:59:58.558Z,53.82
2022-08-27T10:02:26.893Z,54.20
2022-08-27T10:04:58.751Z,55.20
2022-08-27T10:08:03.251Z,56.35
2022-08-27T10:10:49.003Z,56.09
2022-08-27T10:13:20.493Z,56.38
2022-08-27T10:16:15.076Z,55.23
2022-08-27T10:19:05.497Z,54.20
2022-08-27T10:21:47.187Z,54.32
2022-08-27T10:24:17.061Z,53.60
2022-08-27T10:27:10.012Z,53.10
2022-08-27T10:29:46.996Z,53.29
2022-08-27T10:32:52.341Z,53.45
2022-08-27T10:35:28.637Z,53.55
2022-08-27T10:38:25.239Z,53.96
2022-08-27T10:41:02.117Z,53.66
2022-08-27T10:43:50.675Z,53.91
2022-08-27T10:46:39.095Z,53.76
2022-08-27T10:49:23.679Z,54.35
2022-08-27T10:52:24.792Z,54.38
2022-08-27T10:55:21.818Z,54.19
2022-08-27T10:58:10.733Z,53.72
2022-08-27T11:00:56.086Z,53.68
2022-08-27T11:03:33.599Z,53.74
2022-08-27T11:06:19.096Z,53.82
2022-08-27T11:08:52.094Z,53.04
2022-08-27T11:12:13.228Z,50.30
2022-08-27T11:14:56.885Z,49.02
2022-08-27T11:17:32.064Z,47.51
2022-08-27T11:20:15.351Z,47.49
2022-08-27T11:22:47.204Z,47.64
2022-08-27T11:25:21.974Z,47.54
2022-08-27T11:27:52.073Z,47.60
2022-08-27T11:30:46.519Z,47.49
2022-08-27T11:33:35.554Z,47.62
2022-08-27T11:36:09.026Z,48.15
2022-08-27T11:38:53.662Z,48.10
2022-08-27T11:41:45.367Z,48.40
2022-08-27T11:44:15.241Z,48.73
2022-08-27T11:46:48.670Z,49.08
2022-08-27T11:49:29.913Z,49.50
2022-08-27T11:52:01.105Z,49.74
2022-08-27T11:54:42.718Z,50.14
2022-08-27T11:57:25.263Z,50.97
2022-08-27T11:59:53.120Z,51.67
2022-08-27T12:02:20.308Z,51.77
2022-08-27T12:04:49.623Z,52.41
2022-08-27T12:07:17.438Z,53.03
2022-08-27T12:09:54.975Z,53.85
2022-08-27T12:13:21.299Z,54.61
2022-08-27T12:15:51.757Z,55.53
2022-08-27T12:18:32.629Z,56.71
2022-08-27T12:21:11.783Z,57.02
2022-08-27T12:24:05.202Z,57.60
2022-08-27T12:26:34.614Z,57.41
2022-08-27T12:29:31.545Z,57.62
2022-08-27T12:32:40.776Z,58.40
2022-08-27T12:35:36.072Z,58.59
2022-08-27T12:38:17.151Z,58.90
2022-08-27T12:41:09.289Z,59.67
2022-08-27T12:43:43.299Z,59.54
2022-08-27T12:46:20.329Z,59.90
2022-08-27T12:48:55.235Z,59.71
2022-08-27T12:51:25.974Z,59.70
2022-08-27T12:54:13.189Z,59.97
2022-08-27T12:57:12.535Z,59.23
2022-08-27T13:00:18.817Z,59.23
2022-08-27T13:03:04.838Z,59.96
2022-08-27T13:05:44.666Z,62.01
2022-08-27T13:08:18.978Z,62.28
2022-08-27T13:10:46.296Z,63.83
2022-08-27T13:13:20.956Z,66.11
2022-08-27T13:16:02.114Z,66.68
2022-08-27T13:18:30.547Z,66.68
2022-08-27T13:21:28.528Z,65.34
2022-08-27T13:24:01.422Z,66.01
2022-08-27T13:26:34.149Z,65.49
2022-08-27T13:29:03.770Z,65.34
2022-08-27T13:31:32.479Z,64.59
2022-08-27T13:34:01.096Z,64.23
2022-08-27T13:36:32.131Z,64.21
2022-08-27T13:39:02.515Z,64.00
2022-08-27T13:41:38.483Z,63.90
2022-08-27T13:44:07.464Z,63.82
2022-08-27T13:46:48.654Z,63.41
2022-08-27T13:49:23.032Z,62.56
2022-08-27T13:52:00.273Z,63.13
2022-08-27T13:54:28.435Z,61.55
2022-08-27T13:57:03.694Z,62.20
2022-08-27T13:59:31.679Z,61.38
2022-08-27T14:02:11.364Z,62.81
2022-08-27T14:04:39.136Z,62.41
2022-08-27T14:07:09.266Z,62.28
2022-08-27T14:09:45.489Z,62.24
2022-08-27T14:12:33.079Z,62.90
2022-08-27T14:15:34.133Z,62.89
2022-08-27T14:18:04.377Z,63.61
2022-08-27T14:20:32.172Z,63.27
2022-08-27T14:22:59.649Z,63.35
2022-08-27T14:25:26.972Z,63.56
2022-08-27T14:27:57.202Z,63.39
2022-08-27T14:30:29.266Z,63.47
2022-08-27T14:32:59.167Z,63.48
2022-08-27T14:35:28.112Z,63.42
2022-08-27T14:37:55.771Z,63.18
2022-08-27T14:40:23.233Z,63.50
2022-08-27T14:42:50.916Z,63.10
2022-08-27T14:45:18.538Z,63.09
2022-08-27T14:47:45.874Z,62.91
2022-08-27T14:50:14.079Z,62.51
2022-08-27T14:52:41.652Z,63.06
2022-08-27T14:55:10.952Z,61.70
2022-08-27T14:57:38.811Z,61.21
2022-08-27T15:00:08.209Z,61.31
2022-08-27T15:02:40.005Z,60.91
2022-08-27T15:05:11.815Z,60.13
2022-08-27T15:07:41.702Z,59.86
2022-08-27T15:10:15.367Z,57.87
2022-08-27T15:12:43.354Z,58.07
2022-08-27T15:15:11.716Z,58.06
2022-08-27T15:17:39.075Z,58.09
2022-08-27T15:20:09.423Z,59.10
2022-08-27T15:22:44.177Z,58.83
2022-08-27T15:25:15.516Z,59.05
2022-08-27T15:27:43.167Z,59.46
2022-08-27T15:30:13.031Z,59.41
2022-08-27T15:32:46.553Z,59.39
2022-08-27T15:35:17.341Z,59.58
2022-08-27T15:37:45.659Z,58.69
2022-08-27T15:40:15.326Z,58.81
2022-08-27T15:42:43.348Z,57.98
2022-08-27T15:45:13.269Z,58.70
2022-08-27T15:47:40.638Z,58.79
2022-08-27T15:50:08.495Z,59.09
2022-08-27T15:52:40.853Z,59.00
2022-08-27T15:55:30.289Z,58.83
2022-08-27T15:57:58.357Z,59.02
2022-08-27T16:00:26.835Z,59.04
2022-08-27T16:02:54.572Z,58.38
2022-08-27T16:05:22.702Z,57.35
2022-08-27T16:07:50.567Z,56.88
2022-08-27T16:10:17.944Z,57.68
2022-08-27T16:12:46.298Z,57.45
2022-08-27T16:15:14.974Z,57.16
2022-08-27T16:17:42.634Z,57.43
2022-08-27T16:20:12.965Z,57.43
2022-08-27T16:22:41.959Z,57.34
2022-08-27T16:25:13.131Z,57.21
2022-08-27T16:27:42.643Z,57.65
2022-08-27T16:30:12.745Z,58.17
2022-08-27T16:32:40.516Z,57.89
2022-08-27T16:35:08.909Z,57.58
2022-08-27T16:37:36.391Z,57.53
2022-08-27T16:40:04.225Z,57.34
2022-08-27T16:42:33.273Z,57.43
2022-08-27T16:45:01.572Z,57.04
2022-08-27T16:47:28.956Z,57.17
2022-08-27T16:50:22.883Z,56.94
2022-08-27T16:52:52.906Z,57.03
2022-08-27T16:55:20.204Z,56.91
2022-08-27T16:57:47.445Z,56.58
2022-08-27T17:00:14.934Z,56.86
2022-08-27T17:02:42.628Z,56.54
2022-08-27T17:05:33.559Z,56.45
2022-08-27T17:07:59.471Z,56.75
2022-08-27T17:10:33.927Z,56.46
2022-08-27T17:13:01.282Z,56.68
2022-08-27T17:15:28.769Z,56.40
2022-08-27T17:17:57.906Z,56.49
2022-08-27T17:20:25.734Z,56.35
2022-08-27T17:22:57.256Z,56.60
2022-08-27T17:25:30.070Z,56.43
2022-08-27T17:28:00.238Z,56.60
2022-08-27T17:30:28.161Z,56.62
2022-08-27T17:32:55.574Z,56.37
2022-08-27T17:35:22.874Z,56.54
2022-08-27T17:37:50.179Z,56.24
2022-08-27T17:40:17.567Z,56.52
2022-08-27T17:42:44.860Z,56.32
2022-08-27T17:45:12.275Z,56.35
2022-08-27T17:47:39.567Z,56.49
2022-08-27T17:50:07.169Z,56.21
2022-08-27T17:52:37.690Z,56.30
2022-08-27T17:55:05.918Z,56.30
2022-08-27T17:57:40.401Z,56.19
2022-08-27T18:00:13.007Z,56.63
2022-08-27T18:02:46.975Z,56.41
2022-08-27T18:05:16.452Z,56.25
2022-08-27T18:07:44.273Z,56.50
2022-08-27T18:10:14.020Z,56.37
2022-08-27T18:12:42.192Z,56.32
2022-08-27T18:15:35.784Z,56.32
2022-08-27T18:18:04.562Z,56.31
2022-08-27T18:20:33.942Z,56.25
2022-08-27T18:23:03.530Z,56.44
2022-08-27T18:25:36.020Z,56.56
2022-08-27T18:28:09.125Z,56.40
2022-08-27T18:30:39.503Z,56.28
2022-08-27T18:33:08.131Z,56.22
2022-08-27T18:35:36.674Z,56.10
2022-08-27T18:38:04.807Z,56.19
2022-08-27T18:40:38.209Z,56.38
2022-08-27T18:43:05.948Z,56.47
2022-08-27T18:45:36.039Z,56.57
2022-08-27T18:48:13.158Z,56.38
2022-08-27T18:50:47.930Z,56.32
2022-08-27T18:53:18.480Z,56.28
2022-08-27T18:55:46.418Z,56.56
2022-08-27T18:58:13.917Z,56.47
2022-08-27T19:00:44.393Z,56.27
2022-08-27T19:03:26.259Z,56.17
2022-08-27T19:05:55.033Z,56.25
2022-08-27T19:08:24.559Z,56.37
2022-08-27T19:10:51.886Z,56.34
2022-08-27T19:13:19.363Z,56.39
2022-08-27T19:15:52.743Z,56.17
2022-08-27T19:18:21.500Z,56.34
2022-08-27T19:20:48.884Z,56.42
2022-08-27T19:23:16.371Z,56.19
2022-08-27T19:25:50.347Z,56.26
2022-08-27T19:28:23.133Z,56.04
2022-08-27T19:30:50.504Z,56.47
2022-08-27T19:33:18.107Z,56.34
2022-08-27T19:35:45.481Z,56.66
2022-08-27T19:38:14.421Z,56.43
2022-08-27T19:40:42.286Z,56.31
2022-08-27T19:43:10.109Z,56.46
2022-08-27T19:45:40.290Z,56.31
2022-08-27T19:48:08.794Z,56.26
2022-08-27T19:50:36.116Z,56.23
2022-08-27T19:53:04.183Z,56.03
2022-08-27T19:55:31.531Z,56.38
2022-08-27T19:57:58.860Z,56.17
2022-08-27T20:00:27.838Z,56.08
2022-08-27T20:02:55.878Z,56.31
2022-08-27T20:05:23.301Z,56.20
2022-08-27T20:07:52.630Z,56.01
2022-08-27T20:10:25.757Z,56.33
2022-08-27T20:12:59.662Z,56.10
2022-08-27T20:15:27.148Z,56.43
2022-08-27T20:17:54.510Z,56.37
2022-08-27T20:20:24.536Z,56.18
2022-08-27T20:22:52.007Z,56.30
2022-08-27T20:25:19.828Z,56.05
2022-08-27T20:27:47.726Z,56.11
2022-08-27T20:30:16.908Z,56.21
2022-08-27T20:32:46.694Z,56.26
2022-08-27T20:35:15.961Z,56.31
2022-08-27T20:37:43.489Z,56.40
2022-08-27T20:40:16.044Z,56.09
2022-08-27T20:42:44.486Z,56.11
2022-08-27T20:45:13.294Z,56.08
2022-08-27T20:47:43.370Z,56.03
2022-08-27T20:50:12.871Z,55.93
2022-08-27T20:52:41.899Z,56.41
2022-08-27T20:55:09.973Z,55.86
2022-08-27T20:57:37.240Z,56.35
2022-08-27T21:00:21.387Z,56.38
2022-08-27T21:02:48.838Z,56.30
2022-08-27T21:05:18.029Z,56.08
2022-08-27T21:07:48.561Z,55.96
2022-08-27T21:10:15.940Z,56.04
2022-08-27T21:12:44.362Z,56.29
2022-08-27T21:15:12.286Z,55.96
2022-08-27T21:17:39.801Z,56.29
2022-08-27T21:20:11.011Z,56.23
2022-08-27T21:22:39.979Z,56.25
2022-08-27T21:25:08.840Z,56.19
2022-08-27T21:27:36.543Z,56.29
2022-08-27T21:30:04.819Z,56.22
2022-08-27T21:32:32.596Z,56.29
2022-08-27T21:34:59.946Z,56.36
2022-08-27T21:37:27.269Z,56.27
2022-08-27T21:39:54.654Z,56.18
2022-08-27T21:42:22.005Z,56.29
2022-08-27T21:44:50.555Z,56.32
2022-08-27T21:47:17.893Z,56.07
2022-08-27T21:49:45.296Z,56.13
2022-08-27T21:52:12.896Z,56.29
2022-08-27T21:54:42.180Z,55.96
2022-08-27T21:57:14.032Z,56.32
2022-08-27T21:59:45.878Z,56.13
2022-08-27T22:02:38.308Z,56.06
2022-08-27T22:05:02.391Z,56.35
2022-08-27T22:07:29.797Z,56.13
2022-08-27T22:09:57.159Z,56.29
2022-08-27T22:12:25.478Z,55.92
2022-08-27T22:14:52.813Z,56.11
2022-08-27T22:17:20.333Z,56.18
2022-08-27T22:19:47.621Z,56.16
2022-08-27T22:22:14.976Z,56.36
2022-08-27T22:24:42.240Z,55.98
2022-08-27T22:27:09.579Z,56.30
2022-08-27T22:29:37.000Z,56.24
2022-08-27T22:32:07.539Z,57.59
2022-08-27T22:34:36.238Z,57.93
2022-08-27T22:37:04.297Z,58.39
2022-08-27T22:39:31.812Z,58.84
2022-08-27T22:42:00.159Z,59.37
2022-08-27T22:44:29.417Z,59.49
2022-08-27T22:46:57.226Z,59.72
2022-08-27T22:49:24.652Z,59.55
2022-08-27T22:51:51.921Z,59.99
2022-08-27T22:54:19.220Z,60.17
2022-08-27T22:56:46.574Z,60.58
2022-08-27T22:59:14.367Z,60.41
2022-08-27T23:01:41.906Z,60.63
2022-08-27T23:04:09.323Z,60.86
2022-08-27T23:06:36.915Z,61.09
2022-08-27T23:09:04.581Z,60.92
2022-08-27T23:11:31.919Z,61.21
2022-08-27T23:13:59.895Z,61.15
2022-08-27T23:16:28.150Z,61.17
2022-08-27T23:18:55.496Z,61.05
2022-08-27T23:21:23.002Z,60.81
2022-08-27T23:23:50.245Z,60.90
2022-08-27T23:26:36.401Z,61.05
2022-08-27T23:29:03.691Z,60.95
2022-08-27T23:31:32.329Z,61.12
2022-08-27T23:33:59.880Z,60.92
2022-08-27T23:36:29.360Z,61.19
2022-08-27T23:38:58.360Z,61.07
2022-08-27T23:41:28.268Z,60.69
2022-08-27T23:43:55.721Z,60.75
2022-08-27T23:46:23.073Z,60.81
2022-08-27T23:48:50.402Z,60.47
2022-08-27T23:51:17.786Z,60.63
2022-08-27T23:53:45.120Z,60.64
2022-08-27T23:56:14.593Z,60.57
2022-08-27T23:58:42.004Z,60.86
